sensor_id;sensor_type;location;lat;lon;timestamp;temperature;humidity
45008;DHT22;30743;52.008;5.644;2022-09-02T00:01:48;22.10;64.40
45008;DHT22;30743;52.008;5.644;2022-09-02T00:04:17;22.00;64.30
45008;DHT22;30743;52.008;5.644;2022-09-02T00:06:44;22.10;64.40
45008;DHT22;30743;52.008;5.644;2022-09-02T00:09:13;21.90;64.20
45008;DHT22;30743;52.008;5.644;2022-09-02T00:11:40;22.10;64.40
45008;DHT22;30743;52.008;5.644;2022-09-02T00:14:11;22.10;64.50
45008;DHT22;30743;52.008;5.644;2022-09-02T00:16:38;22.10;64.40
45008;DHT22;30743;52.008;5.644;2022-09-02T00:19:04;22.10;64.30
45008;DHT22;30743;52.008;5.644;2022-09-02T00:21:33;22.20;64.20
45008;DHT22;30743;52.008;5.644;2022-09-02T00:24:00;22.20;64.00
45008;DHT22;30743;52.008;5.644;2022-09-02T00:26:27;22.30;64.10
45008;DHT22;30743;52.008;5.644;2022-09-02T00:28:52;22.30;63.90
45008;DHT22;30743;52.008;5.644;2022-09-02T00:31:18;22.30;63.80
45008;DHT22;30743;52.008;5.644;2022-09-02T00:33:44;22.40;63.70
45008;DHT22;30743;52.008;5.644;2022-09-02T00:36:10;22.40;63.70
45008;DHT22;30743;52.008;5.644;2022-09-02T00:38:36;22.40;63.60
45008;DHT22;30743;52.008;5.644;2022-09-02T00:41:07;22.40;63.70
45008;DHT22;30743;52.008;5.644;2022-09-02T00:43:58;22.40;63.60
45008;DHT22;30743;52.008;5.644;2022-09-02T00:46:25;22.30;63.60
45008;DHT22;30743;52.008;5.644;2022-09-02T00:49:16;22.30;64.00
45008;DHT22;30743;52.008;5.644;2022-09-02T00:51:47;22.30;64.00
45008;DHT22;30743;52.008;5.644;2022-09-02T00:54:15;22.30;64.00
45008;DHT22;30743;52.008;5.644;2022-09-02T00:56:43;22.10;64.10
45008;DHT22;30743;52.008;5.644;2022-09-02T00:59:14;22.20;64.20
45008;DHT22;30743;52.008;5.644;2022-09-02T01:01:42;22.20;64.40
45008;DHT22;30743;52.008;5.644;2022-09-02T01:04:07;22.20;64.60
45008;DHT22;30743;52.008;5.644;2022-09-02T01:06:33;22.10;64.50
45008;DHT22;30743;52.008;5.644;2022-09-02T01:09:07;22.10;64.80
45008;DHT22;30743;52.008;5.644;2022-09-02T01:11:44;22.10;64.40
45008;DHT22;30743;52.008;5.644;2022-09-02T01:14:13;22.20;64.40
45008;DHT22;30743;52.008;5.644;2022-09-02T01:16:46;22.20;64.10
45008;DHT22;30743;52.008;5.644;2022-09-02T01:19:23;22.20;64.30
45008;DHT22;30743;52.008;5.644;2022-09-02T01:21:52;22.00;64.30
45008;DHT22;30743;52.008;5.644;2022-09-02T01:24:19;21.90;64.80
45008;DHT22;30743;52.008;5.644;2022-09-02T01:26:46;21.80;65.00
45008;DHT22;30743;52.008;5.644;2022-09-02T01:29:12;21.80;65.10
45008;DHT22;30743;52.008;5.644;2022-09-02T01:31:38;21.80;65.10
45008;DHT22;30743;52.008;5.644;2022-09-02T01:34:04;21.70;65.30
45008;DHT22;30743;52.008;5.644;2022-09-02T01:36:31;21.50;65.60
45008;DHT22;30743;52.008;5.644;2022-09-02T01:38:57;21.40;65.90
45008;DHT22;30743;52.008;5.644;2022-09-02T01:41:22;21.20;66.10
45008;DHT22;30743;52.008;5.644;2022-09-02T01:43:48;21.30;66.50
45008;DHT22;30743;52.008;5.644;2022-09-02T01:46:13;21.20;66.40
45008;DHT22;30743;52.008;5.644;2022-09-02T01:48:39;21.30;66.30
45008;DHT22;30743;52.008;5.644;2022-09-02T01:51:05;21.40;66.30
45008;DHT22;30743;52.008;5.644;2022-09-02T01:53:31;21.30;66.40
45008;DHT22;30743;52.008;5.644;2022-09-02T01:55:57;21.20;66.30
45008;DHT22;30743;52.008;5.644;2022-09-02T01:58:22;21.30;66.40
45008;DHT22;30743;52.008;5.644;2022-09-02T02:00:48;21.40;66.30
45008;DHT22;30743;52.008;5.644;2022-09-02T02:03:14;21.30;66.10
45008;DHT22;30743;52.008;5.644;2022-09-02T02:05:40;21.50;65.30
45008;DHT22;30743;52.008;5.644;2022-09-02T02:08:05;21.50;66.00
45008;DHT22;30743;52.008;5.644;2022-09-02T02:10:32;21.50;65.90
45008;DHT22;30743;52.008;5.644;2022-09-02T02:12:59;21.60;66.00
45008;DHT22;30743;52.008;5.644;2022-09-02T02:15:24;21.60;65.10
45008;DHT22;30743;52.008;5.644;2022-09-02T02:17:50;21.60;65.80
45008;DHT22;30743;52.008;5.644;2022-09-02T02:20:17;21.60;65.60
45008;DHT22;30743;52.008;5.644;2022-09-02T02:22:43;21.80;65.70
45008;DHT22;30743;52.008;5.644;2022-09-02T02:25:09;21.60;65.90
45008;DHT22;30743;52.008;5.644;2022-09-02T02:27:35;21.50;66.20
45008;DHT22;30743;52.008;5.644;2022-09-02T02:30:00;21.60;65.90
45008;DHT22;30743;52.008;5.644;2022-09-02T02:32:26;21.50;65.80
45008;DHT22;30743;52.008;5.644;2022-09-02T02:34:52;21.70;65.80
45008;DHT22;30743;52.008;5.644;2022-09-02T02:37:18;21.70;65.70
45008;DHT22;30743;52.008;5.644;2022-09-02T02:39:44;21.70;65.70
45008;DHT22;30743;52.008;5.644;2022-09-02T02:42:09;21.80;65.70
45008;DHT22;30743;52.008;5.644;2022-09-02T02:44:38;21.70;66.40
45008;DHT22;30743;52.008;5.644;2022-09-02T02:47:05;21.80;65.80
45008;DHT22;30743;52.008;5.644;2022-09-02T02:49:35;21.70;65.80
45008;DHT22;30743;52.008;5.644;2022-09-02T02:52:01;21.70;65.60
45008;DHT22;30743;52.008;5.644;2022-09-02T02:54:27;21.80;65.70
45008;DHT22;30743;52.008;5.644;2022-09-02T02:56:52;21.80;65.80
45008;DHT22;30743;52.008;5.644;2022-09-02T02:59:18;21.80;65.50
45008;DHT22;30743;52.008;5.644;2022-09-02T03:01:43;21.80;65.60
45008;DHT22;30743;52.008;5.644;2022-09-02T03:04:09;21.80;65.50
45008;DHT22;30743;52.008;5.644;2022-09-02T03:06:34;21.90;65.60
45008;DHT22;30743;52.008;5.644;2022-09-02T03:09:00;21.80;65.50
45008;DHT22;30743;52.008;5.644;2022-09-02T03:11:26;21.80;65.50
45008;DHT22;30743;52.008;5.644;2022-09-02T03:13:52;21.90;65.60
45008;DHT22;30743;52.008;5.644;2022-09-02T03:16:18;21.80;65.70
45008;DHT22;30743;52.008;5.644;2022-09-02T03:18:48;21.70;65.80
45008;DHT22;30743;52.008;5.644;2022-09-02T03:21:14;21.80;65.80
45008;DHT22;30743;52.008;5.644;2022-09-02T03:23:40;21.90;65.70
45008;DHT22;30743;52.008;5.644;2022-09-02T03:26:11;21.80;65.60
45008;DHT22;30743;52.008;5.644;2022-09-02T03:28:37;21.80;65.80
45008;DHT22;30743;52.008;5.644;2022-09-02T03:31:03;21.90;65.80
45008;DHT22;30743;52.008;5.644;2022-09-02T03:33:29;21.80;65.70
45008;DHT22;30743;52.008;5.644;2022-09-02T03:35:55;21.80;65.70
45008;DHT22;30743;52.008;5.644;2022-09-02T03:38:20;21.80;65.70
45008;DHT22;30743;52.008;5.644;2022-09-02T03:40:46;21.70;65.40
45008;DHT22;30743;52.008;5.644;2022-09-02T03:43:11;21.70;65.80
45008;DHT22;30743;52.008;5.644;2022-09-02T03:45:37;21.80;65.30
45008;DHT22;30743;52.008;5.644;2022-09-02T03:48:06;21.80;66.00
45008;DHT22;30743;52.008;5.644;2022-09-02T03:50:37;21.70;65.80
45008;DHT22;30743;52.008;5.644;2022-09-02T03:53:05;21.70;65.90
45008;DHT22;30743;52.008;5.644;2022-09-02T03:55:31;21.80;65.20
45008;DHT22;30743;52.008;5.644;2022-09-02T03:57:56;21.80;65.90
45008;DHT22;30743;52.008;5.644;2022-09-02T04:00:24;21.80;65.80
45008;DHT22;30743;52.008;5.644;2022-09-02T04:02:53;21.80;65.80
45008;DHT22;30743;52.008;5.644;2022-09-02T04:05:19;21.80;65.70
45008;DHT22;30743;52.008;5.644;2022-09-02T04:07:46;21.80;65.70
45008;DHT22;30743;52.008;5.644;2022-09-02T04:10:12;21.70;65.80
45008;DHT22;30743;52.008;5.644;2022-09-02T04:12:38;21.60;65.90
45008;DHT22;30743;52.008;5.644;2022-09-02T04:15:06;21.60;66.00
45008;DHT22;30743;52.008;5.644;2022-09-02T04:17:35;21.60;65.90
45008;DHT22;30743;52.008;5.644;2022-09-02T04:20:01;21.60;66.00
45008;DHT22;30743;52.008;5.644;2022-09-02T04:22:27;21.60;66.00
45008;DHT22;30743;52.008;5.644;2022-09-02T04:24:53;21.60;66.00
45008;DHT22;30743;52.008;5.644;2022-09-02T04:27:18;21.60;66.10
45008;DHT22;30743;52.008;5.644;2022-09-02T04:29:44;21.60;66.30
45008;DHT22;30743;52.008;5.644;2022-09-02T04:32:09;21.50;67.10
45008;DHT22;30743;52.008;5.644;2022-09-02T04:34:35;21.40;66.70
45008;DHT22;30743;52.008;5.644;2022-09-02T04:37:00;21.40;66.80
45008;DHT22;30743;52.008;5.644;2022-09-02T04:39:25;21.30;66.70
45008;DHT22;30743;52.008;5.644;2022-09-02T04:41:51;21.30;66.90
45008;DHT22;30743;52.008;5.644;2022-09-02T04:44:18;21.30;66.90
45008;DHT22;30743;52.008;5.644;2022-09-02T04:46:43;21.40;66.90
45008;DHT22;30743;52.008;5.644;2022-09-02T04:49:09;21.40;66.90
45008;DHT22;30743;52.008;5.644;2022-09-02T04:51:35;21.40;66.70
45008;DHT22;30743;52.008;5.644;2022-09-02T04:54:01;21.60;66.70
45008;DHT22;30743;52.008;5.644;2022-09-02T04:56:28;21.40;66.90
45008;DHT22;30743;52.008;5.644;2022-09-02T04:58:55;21.50;66.70
45008;DHT22;30743;52.008;5.644;2022-09-02T05:01:24;21.50;66.70
45008;DHT22;30743;52.008;5.644;2022-09-02T05:03:51;21.60;66.60
45008;DHT22;30743;52.008;5.644;2022-09-02T05:06:21;21.60;66.60
45008;DHT22;30743;52.008;5.644;2022-09-02T05:08:47;21.50;66.70
45008;DHT22;30743;52.008;5.644;2022-09-02T05:11:16;21.60;66.70
45008;DHT22;30743;52.008;5.644;2022-09-02T05:13:43;21.40;66.60
45008;DHT22;30743;52.008;5.644;2022-09-02T05:16:08;21.50;67.00
45008;DHT22;30743;52.008;5.644;2022-09-02T05:18:34;21.50;66.80
45008;DHT22;30743;52.008;5.644;2022-09-02T05:21:04;21.50;66.80
45008;DHT22;30743;52.008;5.644;2022-09-02T05:23:29;21.60;66.80
45008;DHT22;30743;52.008;5.644;2022-09-02T05:25:55;21.60;67.00
45008;DHT22;30743;52.008;5.644;2022-09-02T05:28:20;21.60;66.80
45008;DHT22;30743;52.008;5.644;2022-09-02T05:30:46;21.70;66.90
45008;DHT22;30743;52.008;5.644;2022-09-02T05:33:11;21.70;66.80
45008;DHT22;30743;52.008;5.644;2022-09-02T05:35:42;21.90;66.00
45008;DHT22;30743;52.008;5.644;2022-09-02T05:38:07;21.90;66.70
45008;DHT22;30743;52.008;5.644;2022-09-02T05:40:35;21.90;66.80
45008;DHT22;30743;52.008;5.644;2022-09-02T05:43:00;22.00;66.60
45008;DHT22;30743;52.008;5.644;2022-09-02T05:45:26;22.00;65.20
45008;DHT22;30743;52.008;5.644;2022-09-02T05:47:51;21.90;65.90
45008;DHT22;30743;52.008;5.644;2022-09-02T05:50:17;22.10;66.30
45008;DHT22;30743;52.008;5.644;2022-09-02T05:52:43;22.20;66.40
45008;DHT22;30743;52.008;5.644;2022-09-02T05:55:09;22.20;66.10
45008;DHT22;30743;52.008;5.644;2022-09-02T05:57:34;22.30;65.50
45008;DHT22;30743;52.008;5.644;2022-09-02T06:00:00;22.70;66.00
45008;DHT22;30743;52.008;5.644;2022-09-02T06:02:25;22.40;65.80
45008;DHT22;30743;52.008;5.644;2022-09-02T06:04:52;22.50;66.00
45008;DHT22;30743;52.008;5.644;2022-09-02T06:07:21;22.50;66.00
45008;DHT22;30743;52.008;5.644;2022-09-02T06:09:47;22.50;65.90
45008;DHT22;30743;52.008;5.644;2022-09-02T06:12:14;22.60;65.70
45008;DHT22;30743;52.008;5.644;2022-09-02T06:14:40;22.50;66.10
45008;DHT22;30743;52.008;5.644;2022-09-02T06:17:06;22.50;66.20
45008;DHT22;30743;52.008;5.644;2022-09-02T06:19:32;22.60;66.00
45008;DHT22;30743;52.008;5.644;2022-09-02T06:21:59;22.70;65.40
45008;DHT22;30743;52.008;5.644;2022-09-02T06:24:26;22.70;65.60
45008;DHT22;30743;52.008;5.644;2022-09-02T06:26:52;24.00;66.30
45008;DHT22;30743;52.008;5.644;2022-09-02T06:29:19;22.70;65.60
45008;DHT22;30743;52.008;5.644;2022-09-02T06:31:46;22.90;65.60
45008;DHT22;30743;52.008;5.644;2022-09-02T06:34:14;22.70;65.80
45008;DHT22;30743;52.008;5.644;2022-09-02T06:36:41;22.70;65.80
45008;DHT22;30743;52.008;5.644;2022-09-02T06:39:11;22.80;65.90
45008;DHT22;30743;52.008;5.644;2022-09-02T06:41:39;22.90;65.90
45008;DHT22;30743;52.008;5.644;2022-09-02T06:44:05;23.00;65.70
45008;DHT22;30743;52.008;5.644;2022-09-02T06:46:37;23.00;65.50
45008;DHT22;30743;52.008;5.644;2022-09-02T06:49:04;23.10;65.90
45008;DHT22;30743;52.008;5.644;2022-09-02T06:51:34;23.10;65.60
45008;DHT22;30743;52.008;5.644;2022-09-02T06:54:00;23.20;65.30
45008;DHT22;30743;52.008;5.644;2022-09-02T06:56:27;23.20;65.80
45008;DHT22;30743;52.008;5.644;2022-09-02T06:58:53;23.30;65.90
45008;DHT22;30743;52.008;5.644;2022-09-02T07:01:21;23.50;65.70
45008;DHT22;30743;52.008;5.644;2022-09-02T07:03:46;23.60;65.40
45008;DHT22;30743;52.008;5.644;2022-09-02T07:06:36;23.70;65.80
45008;DHT22;30743;52.008;5.644;2022-09-02T07:09:04;23.90;65.70
45008;DHT22;30743;52.008;5.644;2022-09-02T07:11:30;24.10;65.30
45008;DHT22;30743;52.008;5.644;2022-09-02T07:13:56;24.30;65.10
45008;DHT22;30743;52.008;5.644;2022-09-02T07:16:36;24.50;64.40
45008;DHT22;30743;52.008;5.644;2022-09-02T07:19:03;24.70;63.70
45008;DHT22;30743;52.008;5.644;2022-09-02T07:21:29;24.80;63.00
45008;DHT22;30743;52.008;5.644;2022-09-02T07:23:57;25.00;63.20
45008;DHT22;30743;52.008;5.644;2022-09-02T07:26:23;25.10;61.80
45008;DHT22;30743;52.008;5.644;2022-09-02T07:28:48;25.20;62.60
45008;DHT22;30743;52.008;5.644;2022-09-02T07:31:15;25.40;62.40
45008;DHT22;30743;52.008;5.644;2022-09-02T07:33:41;25.40;62.10
45008;DHT22;30743;52.008;5.644;2022-09-02T07:36:08;25.60;62.00
45008;DHT22;30743;52.008;5.644;2022-09-02T07:38:35;25.70;61.80
45008;DHT22;30743;52.008;5.644;2022-09-02T07:41:01;25.90;61.30
45008;DHT22;30743;52.008;5.644;2022-09-02T07:43:28;26.00;60.80
45008;DHT22;30743;52.008;5.644;2022-09-02T07:45:55;25.90;61.70
45008;DHT22;30743;52.008;5.644;2022-09-02T07:48:22;26.00;61.30
45008;DHT22;30743;52.008;5.644;2022-09-02T07:50:47;26.00;61.70
45008;DHT22;30743;52.008;5.644;2022-09-02T07:53:14;26.40;61.30
45008;DHT22;30743;52.008;5.644;2022-09-02T07:55:41;26.40;59.60
45008;DHT22;30743;52.008;5.644;2022-09-02T07:58:08;26.50;60.30
45008;DHT22;30743;52.008;5.644;2022-09-02T08:00:34;26.70;60.10
45008;DHT22;30743;52.008;5.644;2022-09-02T08:03:00;26.70;59.60
45008;DHT22;30743;52.008;5.644;2022-09-02T08:05:27;26.90;59.00
45008;DHT22;30743;52.008;5.644;2022-09-02T08:07:52;26.80;59.40
45008;DHT22;30743;52.008;5.644;2022-09-02T08:10:18;27.00;59.40
45008;DHT22;30743;52.008;5.644;2022-09-02T08:12:45;27.30;60.90
45008;DHT22;30743;52.008;5.644;2022-09-02T08:15:12;27.40;59.50
45008;DHT22;30743;52.008;5.644;2022-09-02T08:17:38;27.50;58.90
45008;DHT22;30743;52.008;5.644;2022-09-02T08:20:07;27.50;59.00
45008;DHT22;30743;52.008;5.644;2022-09-02T08:22:34;27.60;59.30
45008;DHT22;30743;52.008;5.644;2022-09-02T08:25:00;27.90;59.50
45008;DHT22;30743;52.008;5.644;2022-09-02T08:27:26;27.90;58.80
45008;DHT22;30743;52.008;5.644;2022-09-02T08:29:52;28.00;58.90
45008;DHT22;30743;52.008;5.644;2022-09-02T08:32:18;28.20;59.20
45008;DHT22;30743;52.008;5.644;2022-09-02T08:34:43;28.30;58.70
45008;DHT22;30743;52.008;5.644;2022-09-02T08:37:09;28.50;58.30
45008;DHT22;30743;52.008;5.644;2022-09-02T08:39:34;28.30;58.40
45008;DHT22;30743;52.008;5.644;2022-09-02T08:44:48;28.50;58.80
45008;DHT22;30743;52.008;5.644;2022-09-02T08:47:27;28.60;58.50
45008;DHT22;30743;52.008;5.644;2022-09-02T08:49:57;28.50;58.60
45008;DHT22;30743;52.008;5.644;2022-09-02T08:52:38;28.50;58.90
45008;DHT22;30743;52.008;5.644;2022-09-02T08:55:09;28.50;58.60
45008;DHT22;30743;52.008;5.644;2022-09-02T08:57:44;28.50;58.70
45008;DHT22;30743;52.008;5.644;2022-09-02T09:00:12;28.60;59.20
45008;DHT22;30743;52.008;5.644;2022-09-02T09:02:42;28.70;59.20
45008;DHT22;30743;52.008;5.644;2022-09-02T09:05:25;28.90;58.80
45008;DHT22;30743;52.008;5.644;2022-09-02T09:08:27;29.20;59.20
45008;DHT22;30743;52.008;5.644;2022-09-02T09:11:02;29.60;58.70
45008;DHT22;30743;52.008;5.644;2022-09-02T09:13:42;29.80;59.00
45008;DHT22;30743;52.008;5.644;2022-09-02T09:18:44;30.00;57.70
45008;DHT22;30743;52.008;5.644;2022-09-02T09:21:12;30.30;57.20
45008;DHT22;30743;52.008;5.644;2022-09-02T09:23:39;30.50;56.60
45008;DHT22;30743;52.008;5.644;2022-09-02T09:26:11;30.70;56.60
45008;DHT22;30743;52.008;5.644;2022-09-02T09:28:46;30.80;56.70
45008;DHT22;30743;52.008;5.644;2022-09-02T09:31:21;31.10;56.30
45008;DHT22;30743;52.008;5.644;2022-09-02T09:34:04;31.40;56.10
45008;DHT22;30743;52.008;5.644;2022-09-02T09:39:28;31.90;55.80
45008;DHT22;30743;52.008;5.644;2022-09-02T09:41:59;31.90;55.40
45008;DHT22;30743;52.008;5.644;2022-09-02T09:44:44;32.00;55.30
45008;DHT22;30743;52.008;5.644;2022-09-02T09:47:24;32.30;54.80
45008;DHT22;30743;52.008;5.644;2022-09-02T09:50:16;32.50;55.20
45008;DHT22;30743;52.008;5.644;2022-09-02T09:52:43;32.50;55.00
45008;DHT22;30743;52.008;5.644;2022-09-02T09:55:17;32.70;55.00
45008;DHT22;30743;52.008;5.644;2022-09-02T09:57:46;33.00;55.40
45008;DHT22;30743;52.008;5.644;2022-09-02T10:02:51;33.80;54.10
45008;DHT22;30743;52.008;5.644;2022-09-02T10:05:26;34.20;53.40
45008;DHT22;30743;52.008;5.644;2022-09-02T10:07:57;34.60;53.50
45008;DHT22;30743;52.008;5.644;2022-09-02T10:10:26;34.90;52.30
45008;DHT22;30743;52.008;5.644;2022-09-02T10:12:55;35.30;52.20
45008;DHT22;30743;52.008;5.644;2022-09-02T10:18:17;35.90;51.40
45008;DHT22;30743;52.008;5.644;2022-09-02T10:20:51;36.10;50.80
45008;DHT22;30743;52.008;5.644;2022-09-02T10:23:34;36.40;51.10
45008;DHT22;30743;52.008;5.644;2022-09-02T10:29:17;36.90;50.20
45008;DHT22;30743;52.008;5.644;2022-09-02T10:40:42;37.90;48.90
45008;DHT22;30743;52.008;5.644;2022-09-02T10:43:37;38.10;49.00
45008;DHT22;30743;52.008;5.644;2022-09-02T10:46:07;38.30;48.60
45008;DHT22;30743;52.008;5.644;2022-09-02T10:54:28;39.00;47.80
45008;DHT22;30743;52.008;5.644;2022-09-02T10:57:28;39.20;48.00
45008;DHT22;30743;52.008;5.644;2022-09-02T11:00:14;39.50;47.90
45008;DHT22;30743;52.008;5.644;2022-09-02T11:03:23;39.70;47.00
45008;DHT22;30743;52.008;5.644;2022-09-02T11:05:53;39.90;47.00
45008;DHT22;30743;52.008;5.644;2022-09-02T11:08:45;40.00;46.50
45008;DHT22;30743;52.008;5.644;2022-09-02T11:11:31;40.20;46.20
45008;DHT22;30743;52.008;5.644;2022-09-02T11:14:15;40.40;46.70
45008;DHT22;30743;52.008;5.644;2022-09-02T11:19:47;40.60;45.80
45008;DHT22;30743;52.008;5.644;2022-09-02T11:22:27;40.80;46.00
45008;DHT22;30743;52.008;5.644;2022-09-02T11:25:23;40.90;45.60
45008;DHT22;30743;52.008;5.644;2022-09-02T11:30:59;41.30;45.70
45008;DHT22;30743;52.008;5.644;2022-09-02T11:33:37;41.50;45.10
45008;DHT22;30743;52.008;5.644;2022-09-02T11:36:07;41.60;44.90
45008;DHT22;30743;52.008;5.644;2022-09-02T11:38:33;41.80;44.70
45008;DHT22;30743;52.008;5.644;2022-09-02T11:43:55;41.90;43.30
45008;DHT22;30743;52.008;5.644;2022-09-02T11:49:34;42.10;43.00
45008;DHT22;30743;52.008;5.644;2022-09-02T11:52:19;42.10;42.70
45008;DHT22;30743;52.008;5.644;2022-09-02T11:54:48;42.20;42.80
45008;DHT22;30743;52.008;5.644;2022-09-02T11:57:24;42.20;42.80
45008;DHT22;30743;52.008;5.644;2022-09-02T12:02:38;42.30;42.40
45008;DHT22;30743;52.008;5.644;2022-09-02T12:08:00;42.20;42.30
45008;DHT22;30743;52.008;5.644;2022-09-02T12:13:11;42.40;39.60
45008;DHT22;30743;52.008;5.644;2022-09-02T12:21:26;42.60;40.50
45008;DHT22;30743;52.008;5.644;2022-09-02T12:28:48;42.80;40.80
45008;DHT22;30743;52.008;5.644;2022-09-02T12:36:55;43.20;40.50
45008;DHT22;30743;52.008;5.644;2022-09-02T12:44:45;43.00;40.50
45008;DHT22;30743;52.008;5.644;2022-09-02T12:47:28;43.10;40.00
45008;DHT22;30743;52.008;5.644;2022-09-02T12:50:05;43.10;40.30
45008;DHT22;30743;52.008;5.644;2022-09-02T12:55:09;43.20;39.60
45008;DHT22;30743;52.008;5.644;2022-09-02T12:57:42;43.10;39.90
45008;DHT22;30743;52.008;5.644;2022-09-02T13:00:13;43.20;40.60
45008;DHT22;30743;52.008;5.644;2022-09-02T13:08:25;43.40;39.70
45008;DHT22;30743;52.008;5.644;2022-09-02T13:16:43;43.40;39.50
45008;DHT22;30743;52.008;5.644;2022-09-02T13:22:24;43.20;39.30
45008;DHT22;30743;52.008;5.644;2022-09-02T13:30:57;42.40;39.80
45008;DHT22;30743;52.008;5.644;2022-09-02T13:33:26;42.10;40.00
45008;DHT22;30743;52.008;5.644;2022-09-02T13:35:56;41.70;40.10
45008;DHT22;30743;52.008;5.644;2022-09-02T13:38:25;41.50;40.90
45008;DHT22;30743;52.008;5.644;2022-09-02T13:40:51;41.20;40.80
45008;DHT22;30743;52.008;5.644;2022-09-02T13:43:20;41.10;41.20
45008;DHT22;30743;52.008;5.644;2022-09-02T13:45:47;40.80;41.50
45008;DHT22;30743;52.008;5.644;2022-09-02T13:48:18;40.40;41.20
45008;DHT22;30743;52.008;5.644;2022-09-02T13:50:47;39.70;42.20
45008;DHT22;30743;52.008;5.644;2022-09-02T13:55:51;36.70;43.90
45008;DHT22;30743;52.008;5.644;2022-09-02T14:01:28;35.70;45.80
45008;DHT22;30743;52.008;5.644;2022-09-02T14:03:56;35.60;46.10
45008;DHT22;30743;52.008;5.644;2022-09-02T14:06:25;35.40;46.90
45008;DHT22;30743;52.008;5.644;2022-09-02T14:08:55;35.70;46.20
45008;DHT22;30743;52.008;5.644;2022-09-02T14:11:23;35.70;46.10
45008;DHT22;30743;52.008;5.644;2022-09-02T14:13:50;35.80;46.80
45008;DHT22;30743;52.008;5.644;2022-09-02T14:16:35;35.80;46.30
45008;DHT22;30743;52.008;5.644;2022-09-02T14:19:23;35.80;45.80
45008;DHT22;30743;52.008;5.644;2022-09-02T14:21:56;35.60;45.80
45008;DHT22;30743;52.008;5.644;2022-09-02T14:24:25;35.70;45.80
45008;DHT22;30743;52.008;5.644;2022-09-02T14:26:56;35.70;45.90
45008;DHT22;30743;52.008;5.644;2022-09-02T14:29:23;35.70;46.00
45008;DHT22;30743;52.008;5.644;2022-09-02T14:32:14;34.70;45.60
45008;DHT22;30743;52.008;5.644;2022-09-02T14:34:45;34.90;46.50
45008;DHT22;30743;52.008;5.644;2022-09-02T14:37:28;35.00;48.10
45008;DHT22;30743;52.008;5.644;2022-09-02T14:40:06;34.70;47.20
45008;DHT22;30743;52.008;5.644;2022-09-02T14:42:51;34.60;47.50
45008;DHT22;30743;52.008;5.644;2022-09-02T14:45:29;34.70;47.60
45008;DHT22;30743;52.008;5.644;2022-09-02T14:48:02;34.80;46.80
45008;DHT22;30743;52.008;5.644;2022-09-02T14:50:35;34.80;47.60
45008;DHT22;30743;52.008;5.644;2022-09-02T14:53:07;34.70;46.80
45008;DHT22;30743;52.008;5.644;2022-09-02T14:55:49;34.50;46.70
45008;DHT22;30743;52.008;5.644;2022-09-02T14:58:17;34.50;47.00
45008;DHT22;30743;52.008;5.644;2022-09-02T15:00:45;34.50;47.10
45008;DHT22;30743;52.008;5.644;2022-09-02T15:03:13;34.00;47.60
45008;DHT22;30743;52.008;5.644;2022-09-02T15:05:40;33.40;47.00
45008;DHT22;30743;52.008;5.644;2022-09-02T15:08:06;33.20;48.00
45008;DHT22;30743;52.008;5.644;2022-09-02T15:10:31;33.30;47.40
45008;DHT22;30743;52.008;5.644;2022-09-02T15:12:59;33.30;48.00
45008;DHT22;30743;52.008;5.644;2022-09-02T15:15:25;33.80;47.50
45008;DHT22;30743;52.008;5.644;2022-09-02T15:17:52;33.70;48.00
45008;DHT22;30743;52.008;5.644;2022-09-02T15:20:17;33.90;47.80
45008;DHT22;30743;52.008;5.644;2022-09-02T15:22:43;34.00;47.60
45008;DHT22;30743;52.008;5.644;2022-09-02T15:25:09;34.10;47.60
45008;DHT22;30743;52.008;5.644;2022-09-02T15:27:35;34.10;46.40
45008;DHT22;30743;52.008;5.644;2022-09-02T15:30:02;34.10;47.00
45008;DHT22;30743;52.008;5.644;2022-09-02T15:32:27;33.80;46.60
45008;DHT22;30743;52.008;5.644;2022-09-02T15:34:53;33.40;47.10
45008;DHT22;30743;52.008;5.644;2022-09-02T15:37:19;33.20;47.00
45008;DHT22;30743;52.008;5.644;2022-09-02T15:39:44;33.30;47.50
45008;DHT22;30743;52.008;5.644;2022-09-02T15:42:10;33.10;47.90
45008;DHT22;30743;52.008;5.644;2022-09-02T15:44:35;32.90;47.50
45008;DHT22;30743;52.008;5.644;2022-09-02T15:47:01;32.80;47.30
45008;DHT22;30743;52.008;5.644;2022-09-02T15:49:27;32.80;48.20
45008;DHT22;30743;52.008;5.644;2022-09-02T15:51:53;32.70;48.10
45008;DHT22;30743;52.008;5.644;2022-09-02T15:54:20;32.70;47.50
45008;DHT22;30743;52.008;5.644;2022-09-02T15:56:47;32.80;48.50
45008;DHT22;30743;52.008;5.644;2022-09-02T15:59:17;32.90;48.00
45008;DHT22;30743;52.008;5.644;2022-09-02T16:01:47;32.90;48.70
45008;DHT22;30743;52.008;5.644;2022-09-02T16:04:13;32.90;47.90
45008;DHT22;30743;52.008;5.644;2022-09-02T16:06:42;33.00;47.50
45008;DHT22;30743;52.008;5.644;2022-09-02T16:09:08;33.00;47.50
45008;DHT22;30743;52.008;5.644;2022-09-02T16:11:41;33.00;47.00
45008;DHT22;30743;52.008;5.644;2022-09-02T16:14:08;32.70;47.80
45008;DHT22;30743;52.008;5.644;2022-09-02T16:16:34;32.40;47.90
45008;DHT22;30743;52.008;5.644;2022-09-02T16:19:00;32.50;47.60
45008;DHT22;30743;52.008;5.644;2022-09-02T16:21:26;32.60;48.00
45008;DHT22;30743;52.008;5.644;2022-09-02T16:23:53;32.50;47.70
45008;DHT22;30743;52.008;5.644;2022-09-02T16:26:24;32.60;47.60
45008;DHT22;30743;52.008;5.644;2022-09-02T16:28:53;32.60;47.90
45008;DHT22;30743;52.008;5.644;2022-09-02T16:31:20;32.50;47.50
45008;DHT22;30743;52.008;5.644;2022-09-02T16:34:04;32.30;47.50
45008;DHT22;30743;52.008;5.644;2022-09-02T16:36:32;32.50;47.80
45008;DHT22;30743;52.008;5.644;2022-09-02T16:38:58;32.20;48.60
45008;DHT22;30743;52.008;5.644;2022-09-02T16:41:26;32.20;48.50
45008;DHT22;30743;52.008;5.644;2022-09-02T16:43:53;31.90;48.00
45008;DHT22;30743;52.008;5.644;2022-09-02T16:46:18;31.80;48.40
45008;DHT22;30743;52.008;5.644;2022-09-02T16:48:44;31.50;48.70
45008;DHT22;30743;52.008;5.644;2022-09-02T16:51:10;31.40;48.50
45008;DHT22;30743;52.008;5.644;2022-09-02T16:53:35;31.40;48.90
45008;DHT22;30743;52.008;5.644;2022-09-02T16:56:02;31.60;49.20
45008;DHT22;30743;52.008;5.644;2022-09-02T16:58:30;31.50;48.20
45008;DHT22;30743;52.008;5.644;2022-09-02T17:00:56;31.70;48.60
45008;DHT22;30743;52.008;5.644;2022-09-02T17:03:22;31.80;48.40
45008;DHT22;30743;52.008;5.644;2022-09-02T17:05:48;31.70;48.10
45008;DHT22;30743;52.008;5.644;2022-09-02T17:08:14;31.80;48.00
45008;DHT22;30743;52.008;5.644;2022-09-02T17:10:41;31.50;48.50
45008;DHT22;30743;52.008;5.644;2022-09-02T17:13:06;31.70;48.30
45008;DHT22;30743;52.008;5.644;2022-09-02T17:15:32;31.40;47.50
45008;DHT22;30743;52.008;5.644;2022-09-02T17:17:57;31.40;48.00
45008;DHT22;30743;52.008;5.644;2022-09-02T17:20:23;31.30;48.20
45008;DHT22;30743;52.008;5.644;2022-09-02T17:22:49;32.20;49.20
45008;DHT22;30743;52.008;5.644;2022-09-02T17:25:15;31.20;49.50